Time;durP1;ratioP1;P1;durP2;ratioP2;P2;SDS_P1;SDS_P2;PMS_P1;PMS_P2;Temp;Humidity;BMP_temperature;BMP_pressure;BME280_temperature;BME280_humidity;BME280_pressure;Samples;Min_cycle;Max_cycle;Signal;HPM_P1;HPM_P2
2023/06/06 00:00:42;;;;;;;;;;;;;;;32.17;42.06;96207.03;4955999;28;19957;-50
2023/06/06 00:03:11;;;;;;;;;;;;;;;32.18;42.30;96214.94;4961428;28;19953;-53
2023/06/06 00:05:39;;;;;;;;;;;;;;;31.98;42.77;96213.22;4954072;28;19973;-42
2023/06/06 00:08:07;;;;;;;;;;;;;;;32.24;42.18;96213.75;4959696;28;19957;-45
2023/06/06 00:10:36;;;;;;;;;;;;;;;32.28;42.02;96212.09;4955502;28;19976;-47
2023/06/06 00:13:05;;;;;;;;;;;;;;;32.05;41.87;96205.50;4965177;28;19980;-49
2023/06/06 00:15:33;;;;;;;;;;;;;;;32.08;41.81;96212.31;4956176;28;19976;-49
2023/06/06 00:18:02;;;;;;;;;;;;;;;31.73;42.82;96207.94;4952884;28;19953;-45
2023/06/06 00:20:32;;;;;;;;;;;;;;;31.46;42.83;96208.47;4962922;28;19968;-52
2023/06/06 00:23:01;;;;;;;;;;;;;;;30.43;45.29;96211.66;4960601;28;19967;-48
2023/06/06 00:25:29;;;;;;;;;;;;;;;30.11;46.29;96209.28;4952674;28;19969;-47
2023/06/06 00:27:57;;;;;;;;;;;;;;;29.87;47.65;96217.19;4955004;28;19980;-47
2023/06/06 00:30:26;;;;;;;;;;;;;;;29.81;48.61;96207.41;4954288;28;20406;-49
2023/06/06 00:32:54;;;;;;;;;;;;;;;29.69;48.26;96213.13;4955672;28;20354;-44
2023/06/06 00:35:22;;;;;;;;;;;;;;;30.74;45.81;96204.19;4956622;28;19953;-45
2023/06/06 00:37:50;;;;;;;;;;;;;;;30.79;45.95;96199.84;4966102;28;19962;-45
2023/06/06 00:40:18;;;;;;;;;;;;;;;31.06;44.79;96194.78;4959320;28;19963;-47
2023/06/06 00:42:46;;;;;;;;;;;;;;;31.14;44.05;96190.63;4953541;28;19965;-44
2023/06/06 00:45:14;;;;;;;;;;;;;;;31.23;43.82;96194.41;4968556;28;20392;-47
2023/06/06 00:47:44;;;;;;;;;;;;;;;31.45;43.79;96202.16;4964694;28;19957;-44
2023/06/06 00:50:12;;;;;;;;;;;;;;;30.88;45.46;96193.53;4970757;28;19973;-46
2023/06/06 00:52:41;;;;;;;;;;;;;;;31.67;43.51;96196.28;4958881;28;19965;-45
2023/06/06 00:55:09;;;;;;;;;;;;;;;31.72;42.60;96196.22;4961202;28;19961;-46
2023/06/06 00:57:37;;;;;;;;;;;;;;;32.02;42.00;96195.16;4959936;28;20330;-46
2023/06/06 01:00:06;;;;;;;;;;;;;;;30.83;44.88;96199.00;4962733;28;19953;-46
2023/06/06 01:02:37;;;;;;;;;;;;;;;30.80;45.48;96202.31;4961218;28;20472;-49
2023/06/06 01:05:07;;;;;;;;;;;;;;;30.83;45.25;96193.53;4966512;28;19961;-47
2023/06/06 01:07:36;;;;;;;;;;;;;;;30.87;45.56;96199.28;4965344;28;19961;-45
2023/06/06 01:10:04;;;;;;;;;;;;;;;30.98;44.78;96198.91;4961763;28;19969;-47
2023/06/06 01:12:33;;;;;;;;;;;;;;;31.44;43.43;96197.81;4958971;28;19973;-44
2023/06/06 01:15:01;;;;;;;;;;;;;;;31.55;42.74;96202.09;4962817;28;19969;-44
2023/06/06 01:17:29;;;;;;;;;;;;;;;30.79;44.32;96197.13;4961343;28;19962;-48
2023/06/06 01:19:59;;;;;;;;;;;;;;;30.39;46.48;96201.63;4963161;28;19973;-45
2023/06/06 01:22:29;;;;;;;;;;;;;;;31.35;44.09;96204.97;4966495;28;19954;-47
2023/06/06 01:24:57;;;;;;;;;;;;;;;31.67;43.34;96205.28;4962013;28;19970;-48
2023/06/06 01:27:27;;;;;;;;;;;;;;;31.64;43.42;96207.75;4960009;28;19965;-53
2023/06/06 01:29:55;;;;;;;;;;;;;;;31.87;42.78;96208.97;4961690;28;20561;-46
2023/06/06 01:32:23;;;;;;;;;;;;;;;32.02;42.19;96206.06;4960150;28;19958;-48
2023/06/06 01:34:54;;;;;;;;;;;;;;;31.19;43.67;96213.22;4961309;28;19961;-49
2023/06/06 01:37:24;;;;;;;;;;;;;;;31.66;42.45;96211.03;4952727;28;20371;-47
2023/06/06 01:39:54;;;;;;;;;;;;;;;31.72;41.93;96209.88;4961874;28;19969;-45
2023/06/06 01:42:22;;;;;;;;;;;;;;;31.42;42.43;96211.75;4959943;28;20402;-47
2023/06/06 01:44:50;;;;;;;;;;;;;;;31.72;41.70;96211.78;4965096;28;19957;-43
2023/06/06 01:47:18;;;;;;;;;;;;;;;31.30;42.49;96216.69;4961252;28;19969;-46
2023/06/06 01:49:46;;;;;;;;;;;;;;;31.35;41.93;96211.25;4962561;28;19962;-44
2023/06/06 01:52:14;;;;;;;;;;;;;;;31.61;40.95;96208.31;4957641;28;20353;-46
2023/06/06 01:54:43;;;;;;;;;;;;;;;31.54;40.98;96211.38;4959925;28;19962;-44
2023/06/06 01:57:12;;;;;;;;;;;;;;;31.07;41.67;96212.75;4968092;28;19966;-43
2023/06/06 01:59:40;;;;;;;;;;;;;;;31.07;42.09;96214.66;4964291;28;19953;-47
2023/06/06 02:02:08;;;;;;;;;;;;;;;31.44;41.04;96214.19;4961650;28;19960;-46
2023/06/06 02:04:37;;;;;;;;;;;;;;;31.50;40.44;96214.97;4952909;28;19958;-49
2023/06/06 02:07:05;;;;;;;;;;;;;;;31.52;40.41;96215.47;4957682;28;20384;-46
2023/06/06 02:09:33;;;;;;;;;;;;;;;31.57;40.58;96219.00;4961568;28;19933;-49
2023/06/06 02:12:01;;;;;;;;;;;;;;;31.61;40.32;96224.69;4954682;28;19966;-46
2023/06/06 02:14:30;;;;;;;;;;;;;;;31.60;40.36;96217.59;4949986;28;20505;-44
2023/06/06 02:16:58;;;;;;;;;;;;;;;31.40;39.81;96216.66;4961228;28;19973;-46
2023/06/06 02:19:27;;;;;;;;;;;;;;;31.25;39.99;96210.44;4957092;28;20016;-48
2023/06/06 02:21:55;;;;;;;;;;;;;;;31.39;40.00;96208.78;4963380;28;19966;-50
2023/06/06 02:24:24;;;;;;;;;;;;;;;31.44;39.88;96209.53;4954712;28;19968;-44
2023/06/06 02:26:53;;;;;;;;;;;;;;;31.44;39.89;96204.09;4958595;28;19954;-49
2023/06/06 02:29:23;;;;;;;;;;;;;;;31.33;39.71;96208.00;4965598;28;19965;-44
2023/06/06 02:31:54;;;;;;;;;;;;;;;30.88;41.02;96204.41;4963827;28;19958;-45
2023/06/06 02:34:24;;;;;;;;;;;;;;;30.24;42.83;96202.47;4962282;28;19961;-48
2023/06/06 02:36:53;;;;;;;;;;;;;;;30.42;41.93;96201.88;4957956;28;19964;-47
2023/06/06 02:39:21;;;;;;;;;;;;;;;29.66;43.48;96205.50;4959525;28;20520;-45
2023/06/06 02:41:50;;;;;;;;;;;;;;;29.83;43.91;96204.41;4959151;28;19958;-45
2023/06/06 02:44:19;;;;;;;;;;;;;;;29.78;43.82;96208.78;4959217;28;20594;-50
2023/06/06 02:46:47;;;;;;;;;;;;;;;30.18;43.14;96211.72;4960252;28;19966;-46
2023/06/06 02:49:17;;;;;;;;;;;;;;;30.00;43.71;96215.81;4962141;28;20366;-45
2023/06/06 02:51:46;;;;;;;;;;;;;;;29.97;43.14;96211.75;4964114;28;19964;-43
2023/06/06 02:54:14;;;;;;;;;;;;;;;30.05;42.95;96221.25;4963895;28;20369;-45
2023/06/06 02:56:42;;;;;;;;;;;;;;;30.13;42.85;96217.16;4964251;28;19961;-49
2023/06/06 02:59:10;;;;;;;;;;;;;;;30.81;41.15;96214.00;4956321;28;19958;-49
2023/06/06 03:01:42;;;;;;;;;;;;;;;30.81;41.08;96214.81;4960043;28;19965;-49
2023/06/06 03:04:11;;;;;;;;;;;;;;;30.03;42.90;96218.78;4964021;28;19956;-47
2023/06/06 03:06:41;;;;;;;;;;;;;;;30.14;43.02;96219.59;4966858;28;20016;-46
2023/06/06 03:09:09;;;;;;;;;;;;;;;30.48;42.15;96218.97;4964304;28;20406;-48
2023/06/06 03:11:37;;;;;;;;;;;;;;;30.75;41.32;96221.34;4960160;28;19965;-47
2023/06/06 03:14:05;;;;;;;;;;;;;;;30.64;41.07;96217.84;4955033;28;19980;-51
2023/06/06 03:16:34;;;;;;;;;;;;;;;30.60;41.27;96218.69;4953768;28;19972;-47
2023/06/06 03:19:03;;;;;;;;;;;;;;;31.04;40.63;96226.13;4959020;28;20385;-44
2023/06/06 03:21:33;;;;;;;;;;;;;;;30.87;40.36;96221.88;4953983;28;21947;-45
2023/06/06 03:24:02;;;;;;;;;;;;;;;30.30;40.68;96234.00;4958247;28;19965;-50
2023/06/06 03:26:31;;;;;;;;;;;;;;;30.10;41.39;96225.84;4958669;28;19961;-47
2023/06/06 03:29:00;;;;;;;;;;;;;;;29.74;42.09;96236.78;4959332;28;20428;-51
2023/06/06 03:31:29;;;;;;;;;;;;;;;28.90;43.21;96229.78;4954759;28;20238;-50
2023/06/06 03:33:57;;;;;;;;;;;;;;;29.73;42.25;96235.13;4958273;28;19957;-56
2023/06/06 03:36:26;;;;;;;;;;;;;;;29.75;42.07;96235.69;4960708;28;19949;-46
2023/06/06 03:38:54;;;;;;;;;;;;;;;29.70;41.79;96235.69;4958308;28;19953;-50
2023/06/06 03:41:25;;;;;;;;;;;;;;;30.39;40.46;96235.09;4957917;28;19972;-49
2023/06/06 03:43:53;;;;;;;;;;;;;;;30.29;40.60;96237.03;4956280;28;19969;-50
2023/06/06 03:46:21;;;;;;;;;;;;;;;29.07;43.24;96239.38;4954240;28;19961;-46
2023/06/06 03:48:49;;;;;;;;;;;;;;;29.79;41.65;96237.56;4957808;28;19965;-50
2023/06/06 03:51:17;;;;;;;;;;;;;;;29.57;41.96;96240.53;4965658;28;19957;-44
2023/06/06 03:53:45;;;;;;;;;;;;;;;29.45;42.52;96234.53;4968019;28;19960;-46
2023/06/06 03:56:13;;;;;;;;;;;;;;;29.32;42.63;96237.81;4966494;28;20359;-46
2023/06/06 03:58:43;;;;;;;;;;;;;;;28.93;43.43;96243.66;4963649;28;19972;-44
2023/06/06 04:01:12;;;;;;;;;;;;;;;29.19;42.64;96238.31;4967672;28;19961;-46
2023/06/06 04:03:40;;;;;;;;;;;;;;;29.55;42.35;96239.19;4960391;28;19961;-44
2023/06/06 04:06:08;;;;;;;;;;;;;;;28.96;43.27;96245.03;4961910;28;19973;-45
2023/06/06 04:08:36;;;;;;;;;;;;;;;29.35;42.36;96242.69;4959594;28;20429;-45
2023/06/06 04:11:04;;;;;;;;;;;;;;;28.78;44.20;96255.28;4968134;28;20378;-43
2023/06/06 04:13:32;;;;;;;;;;;;;;;29.35;42.89;96248.13;4962234;28;19957;-45
2023/06/06 04:16:02;;;;;;;;;;;;;;;29.48;42.33;96249.50;4966530;28;19965;-45
2023/06/06 04:18:30;;;;;;;;;;;;;;;29.67;42.48;96247.09;4964592;28;19980;-45
2023/06/06 04:20:58;;;;;;;;;;;;;;;29.09;43.11;96244.53;4969792;28;19964;-45
2023/06/06 04:23:26;;;;;;;;;;;;;;;29.44;42.32;96245.69;4968873;28;19976;-44
2023/06/06 04:25:54;;;;;;;;;;;;;;;29.52;42.47;96245.16;4963732;28;19969;-47
2023/06/06 04:28:22;;;;;;;;;;;;;;;29.27;43.41;96248.66;4964913;28;19954;-44
2023/06/06 04:30:52;;;;;;;;;;;;;;;29.11;43.68;96239.66;4966067;28;19958;-46
2023/06/06 04:33:23;;;;;;;;;;;;;;;29.15;42.82;96237.22;4959708;28;19957;-45
2023/06/06 04:35:51;;;;;;;;;;;;;;;28.45;45.13;96250.22;4959422;28;19961;-47
2023/06/06 04:38:22;;;;;;;;;;;;;;;28.98;43.75;96251.00;4959995;28;19957;-48
2023/06/06 04:40:53;;;;;;;;;;;;;;;29.44;42.67;96251.94;4956237;28;19969;-48
2023/06/06 04:43:25;;;;;;;;;;;;;;;30.10;41.32;96250.34;4956075;28;19969;-42
2023/06/06 04:45:53;;;;;;;;;;;;;;;30.30;40.87;96252.25;4972856;28;19957;-47
2023/06/06 04:48:25;;;;;;;;;;;;;;;29.52;42.15;96258.72;4961393;28;19960;-41
2023/06/06 04:50:55;;;;;;;;;;;;;;;30.15;41.15;96253.88;4960301;28;20374;-46
2023/06/06 04:53:23;;;;;;;;;;;;;;;30.01;41.78;96256.34;4967610;28;19957;-49
2023/06/06 04:55:53;;;;;;;;;;;;;;;30.00;41.75;96259.31;4965095;28;19953;-47
2023/06/06 04:58:21;;;;;;;;;;;;;;;30.13;41.31;96266.09;4963372;28;19969;-44
2023/06/06 05:00:50;;;;;;;;;;;;;;;29.65;42.62;96263.66;4970312;28;19961;-50
2023/06/06 05:03:19;;;;;;;;;;;;;;;28.61;43.63;96265.50;4962198;28;20429;-51
2023/06/06 05:05:51;;;;;;;;;;;;;;;29.90;41.83;96265.56;4964854;28;19969;-51
2023/06/06 05:08:20;;;;;;;;;;;;;;;30.10;41.42;96264.75;4967008;28;19972;-50
2023/06/06 05:10:48;;;;;;;;;;;;;;;29.34;42.16;96276.38;4961273;28;19973;-47
2023/06/06 05:13:18;;;;;;;;;;;;;;;28.85;43.16;96277.56;4960617;28;19969;-45
2023/06/06 05:15:46;;;;;;;;;;;;;;;29.02;43.42;96276.56;4962249;28;19972;-43
2023/06/06 05:18:15;;;;;;;;;;;;;;;28.78;43.73;96278.88;4959095;28;20402;-45
2023/06/06 05:20:43;;;;;;;;;;;;;;;28.81;43.03;96283.78;4960352;28;19967;-49
2023/06/06 05:23:13;;;;;;;;;;;;;;;28.75;43.74;96279.41;4961560;28;19965;-49
2023/06/06 05:25:41;;;;;;;;;;;;;;;28.71;44.20;96283.75;4957418;28;20410;-48
2023/06/06 05:28:11;;;;;;;;;;;;;;;29.17;43.14;96283.94;4959919;28;20194;-48
2023/06/06 05:30:39;;;;;;;;;;;;;;;29.28;42.13;96283.69;4963552;28;20414;-45
2023/06/06 05:33:08;;;;;;;;;;;;;;;28.66;44.08;96284.50;4966539;28;19950;-42
2023/06/06 05:35:36;;;;;;;;;;;;;;;29.54;41.67;96281.03;4962669;28;19961;-46
2023/06/06 05:38:05;;;;;;;;;;;;;;;29.41;42.36;96285.06;4965689;28;19961;-46
2023/06/06 05:40:34;;;;;;;;;;;;;;;30.00;41.17;96275.63;4960979;28;19961;-46
2023/06/06 05:43:02;;;;;;;;;;;;;;;29.86;41.96;96280.00;4961957;28;19961;-47
2023/06/06 05:45:30;;;;;;;;;;;;;;;28.94;42.44;96280.59;4959625;28;20391;-48
2023/06/06 05:47:59;;;;;;;;;;;;;;;29.56;41.78;96278.88;4962493;28;20471;-48
2023/06/06 05:50:27;;;;;;;;;;;;;;;30.02;40.59;96281.63;4965280;28;19962;-47
2023/06/06 05:52:55;;;;;;;;;;;;;;;31.44;38.24;96283.13;4956349;28;19953;-48
2023/06/06 05:55:29;;;;;;;;;;;;;;;30.96;38.37;96287.44;4961826;28;20571;-52
2023/06/06 05:57:59;;;;;;;;;;;;;;;31.09;38.79;96292.28;4953795;28;19957;-46
2023/06/06 06:00:28;;;;;;;;;;;;;;;32.49;36.65;96280.16;4963281;28;19974;-50
2023/06/06 06:02:57;;;;;;;;;;;;;;;32.31;36.15;96284.38;4965146;28;19961;-46
2023/06/06 06:05:27;;;;;;;;;;;;;;;32.08;37.01;96284.06;4961728;28;19965;-50
2023/06/06 06:07:59;;;;;;;;;;;;;;;33.02;35.65;96275.44;4960075;28;19953;-49
2023/06/06 06:10:27;;;;;;;;;;;;;;;32.48;36.12;96287.50;4961621;28;19964;-46
2023/06/06 06:12:55;;;;;;;;;;;;;;;31.46;37.23;96284.78;4967734;28;19956;-46
2023/06/06 06:15:25;;;;;;;;;;;;;;;31.54;37.46;96292.34;4958847;28;19976;-52
2023/06/06 06:17:53;;;;;;;;;;;;;;;31.03;39.53;96289.88;4961392;28;19960;-47
2023/06/06 06:20:21;;;;;;;;;;;;;;;32.60;36.23;96287.13;4961491;28;19957;-45
2023/06/06 06:22:49;;;;;;;;;;;;;;;31.82;38.31;96283.41;4966413;28;19950;-45
2023/06/06 06:25:17;;;;;;;;;;;;;;;32.30;37.79;96282.75;4964094;28;20398;-46
2023/06/06 06:27:45;;;;;;;;;;;;;;;32.59;36.25;96286.31;4961190;28;19961;-45
2023/06/06 06:30:14;;;;;;;;;;;;;;;31.49;37.70;96289.63;4962529;28;20348;-45
2023/06/06 06:32:44;;;;;;;;;;;;;;;32.35;36.23;96286.25;4957094;28;19957;-46
2023/06/06 06:35:12;;;;;;;;;;;;;;;32.47;36.43;96293.25;4964889;28;20018;-52
2023/06/06 06:37:40;;;;;;;;;;;;;;;31.53;37.48;96298.91;4965606;28;19961;-50
2023/06/06 06:40:09;;;;;;;;;;;;;;;31.48;37.90;96291.56;4953960;28;19968;-51
2023/06/06 06:42:40;;;;;;;;;;;;;;;30.96;38.55;96298.34;4963174;28;19966;-51
2023/06/06 06:45:10;;;;;;;;;;;;;;;32.08;36.98;96302.34;4965286;28;19965;-52
2023/06/06 06:47:38;;;;;;;;;;;;;;;31.45;38.25;96300.28;4963039;28;19957;-48
2023/06/06 06:50:08;;;;;;;;;;;;;;;30.94;39.16;96301.34;4968721;28;20420;-45
2023/06/06 06:52:36;;;;;;;;;;;;;;;31.01;38.83;96308.41;4960315;28;19969;-48
2023/06/06 06:55:04;;;;;;;;;;;;;;;31.56;38.56;96309.25;4965185;28;19964;-52
2023/06/06 06:57:33;;;;;;;;;;;;;;;30.58;40.35;96313.41;4970851;28;19950;-50
2023/06/06 07:00:11;;;;;;;;;;;;;;;30.35;40.08;96309.34;4961195;28;20601;-44
2023/06/06 07:02:42;;;;;;;;;;;;;;;30.73;39.49;96316.09;4966370;28;19983;-45
2023/06/06 07:05:12;;;;;;;;;;;;;;;30.08;41.17;96318.63;4964196;28;19954;-45
2023/06/06 07:07:44;;;;;;;;;;;;;;;29.99;41.34;96321.06;4968336;28;20385;-47
2023/06/06 07:10:13;;;;;;;;;;;;;;;30.45;40.23;96317.50;4964312;28;19945;-52
2023/06/06 07:12:41;;;;;;;;;;;;;;;30.16;40.05;96322.69;4970436;28;19961;-45
2023/06/06 07:15:09;;;;;;;;;;;;;;;29.82;41.82;96319.69;4964075;28;19961;-49
2023/06/06 07:17:37;;;;;;;;;;;;;;;29.51;42.47;96317.69;4961973;28;19957;-47
2023/06/06 07:20:08;;;;;;;;;;;;;;;29.84;40.99;96322.97;4955407;28;19953;-48
2023/06/06 07:22:37;;;;;;;;;;;;;;;31.41;39.60;96318.31;4965038;28;19956;-50
2023/06/06 07:25:06;;;;;;;;;;;;;;;29.46;41.66;96317.72;4960712;28;19953;-44
2023/06/06 07:27:35;;;;;;;;;;;;;;;30.58;39.78;96316.94;4967460;28;19969;-44
2023/06/06 07:30:05;;;;;;;;;;;;;;;31.03;39.53;96320.63;4965749;28;19976;-46
2023/06/06 07:32:33;;;;;;;;;;;;;;;30.09;41.31;96317.53;4960604;28;19972;-49
2023/06/06 07:35:01;;;;;;;;;;;;;;;30.33;41.16;96327.88;4956471;28;19957;-46
2023/06/06 07:37:29;;;;;;;;;;;;;;;30.56;40.34;96323.75;4961567;28;19968;-48
2023/06/06 07:39:59;;;;;;;;;;;;;;;30.01;41.13;96328.97;4957387;28;19992;-45
2023/06/06 07:42:27;;;;;;;;;;;;;;;30.41;41.09;96319.97;4958759;28;19965;-44
2023/06/06 07:44:55;;;;;;;;;;;;;;;30.39;41.39;96324.88;4963665;28;19970;-50
2023/06/06 07:47:23;;;;;;;;;;;;;;;30.49;40.50;96321.34;4962100;28;19961;-46
2023/06/06 07:49:52;;;;;;;;;;;;;;;30.90;40.20;96319.34;4962302;28;19976;-47
2023/06/06 07:52:20;;;;;;;;;;;;;;;31.49;38.12;96322.34;4965630;28;19962;-45
2023/06/06 07:54:48;;;;;;;;;;;;;;;31.08;39.50;96323.34;4958172;28;20012;-45
2023/06/06 07:57:19;;;;;;;;;;;;;;;31.38;38.67;96321.59;4965603;28;19969;-44
2023/06/06 07:59:47;;;;;;;;;;;;;;;31.34;38.80;96315.06;4961110;28;19973;-51
2023/06/06 08:02:15;;;;;;;;;;;;;;;31.25;38.85;96312.13;4962006;28;20375;-50
2023/06/06 08:04:45;;;;;;;;;;;;;;;31.16;39.13;96313.78;4963633;28;19961;-47
2023/06/06 08:07:14;;;;;;;;;;;;;;;31.38;39.06;96313.41;4969386;28;19976;-51
2023/06/06 08:09:42;;;;;;;;;;;;;;;30.85;39.68;96319.34;4956962;28;19962;-46
2023/06/06 08:12:11;;;;;;;;;;;;;;;30.96;39.70;96317.41;4960114;28;19953;-44
2023/06/06 08:14:42;;;;;;;;;;;;;;;30.54;40.56;96320.50;4963151;28;19958;-49
2023/06/06 08:17:10;;;;;;;;;;;;;;;30.47;40.54;96318.88;4963183;28;19972;-45
2023/06/06 08:19:38;;;;;;;;;;;;;;;30.43;40.98;96314.25;4957170;28;20409;-52
2023/06/06 08:22:06;;;;;;;;;;;;;;;30.65;40.90;96320.19;4963233;28;20418;-50
2023/06/06 08:24:34;;;;;;;;;;;;;;;30.41;41.06;96319.97;4959064;28;19958;-49
2023/06/06 08:27:03;;;;;;;;;;;;;;;31.37;39.63;96309.88;4960266;28;19961;-47
2023/06/06 08:29:31;;;;;;;;;;;;;;;30.43;41.12;96320.50;4961706;28;19962;-44
2023/06/06 08:32:01;;;;;;;;;;;;;;;32.23;38.11;96315.84;4957713;28;19964;-49
2023/06/06 08:34:29;;;;;;;;;;;;;;;31.97;38.49;96312.53;4961210;28;19964;-49
2023/06/06 08:36:57;;;;;;;;;;;;;;;32.78;36.58;96310.13;4967618;28;19965;-45
2023/06/06 08:39:25;;;;;;;;;;;;;;;32.29;37.74;96316.63;4964443;28;19973;-48
2023/06/06 08:41:54;;;;;;;;;;;;;;;32.10;37.76;96319.22;4962947;28;19980;-50
2023/06/06 08:44:23;;;;;;;;;;;;;;;31.75;37.40;96310.19;4956023;28;19980;-44
2023/06/06 08:46:52;;;;;;;;;;;;;;;31.97;37.75;96317.13;4955619;28;19965;-49
2023/06/06 08:49:21;;;;;;;;;;;;;;;30.87;38.70;96305.47;4961719;28;20004;-46
2023/06/06 08:51:50;;;;;;;;;;;;;;;32.04;38.60;96313.00;4954808;28;19965;-46
2023/06/06 08:54:18;;;;;;;;;;;;;;;32.09;37.97;96306.69;4960841;28;19972;-45
2023/06/06 08:56:47;;;;;;;;;;;;;;;32.68;36.71;96312.97;4961411;28;19961;-45
2023/06/06 08:59:15;;;;;;;;;;;;;;;32.82;36.08;96316.63;4961776;28;19953;-46
2023/06/06 09:01:43;;;;;;;;;;;;;;;32.91;35.98;96320.38;4964883;28;19976;-48
2023/06/06 09:04:13;;;;;;;;;;;;;;;32.59;36.09;96313.63;4960176;28;20371;-44
2023/06/06 09:06:43;;;;;;;;;;;;;;;32.13;36.80;96314.00;4963802;28;20515;-45
2023/06/06 09:09:12;;;;;;;;;;;;;;;34.23;34.94;96306.78;4965591;28;20406;-48
2023/06/06 09:11:40;;;;;;;;;;;;;;;34.70;33.12;96313.09;4967740;28;19957;-48
2023/06/06 09:14:09;;;;;;;;;;;;;;;32.47;36.21;96315.09;4958719;28;19965;-45
2023/06/06 09:16:37;;;;;;;;;;;;;;;32.73;35.12;96323.84;4958534;28;19961;-50
2023/06/06 09:19:06;;;;;;;;;;;;;;;33.22;35.21;96315.38;4966099;28;20022;-45
2023/06/06 09:21:35;;;;;;;;;;;;;;;33.28;34.36;96314.19;4963234;28;19977;-48
2023/06/06 09:24:05;;;;;;;;;;;;;;;34.00;34.02;96315.97;4972050;28;19965;-45
2023/06/06 09:26:34;;;;;;;;;;;;;;;34.24;34.25;96319.38;4971651;28;19965;-51
2023/06/06 09:29:06;;;;;;;;;;;;;;;34.72;32.67;96319.09;4970898;28;19953;-46
2023/06/06 09:31:37;;;;;;;;;;;;;;;35.90;31.11;96313.91;4964968;28;20418;-43
2023/06/06 09:34:06;;;;;;;;;;;;;;;35.23;31.50;96317.28;4962333;28;19974;-46
2023/06/06 09:36:34;;;;;;;;;;;;;;;35.08;31.49;96325.81;4964028;28;19972;-44
2023/06/06 09:39:05;;;;;;;;;;;;;;;34.83;32.47;96316.97;4962277;28;19958;-44
2023/06/06 09:41:38;;;;;;;;;;;;;;;36.26;30.09;96311.09;4959968;28;19969;-51
2023/06/06 09:44:07;;;;;;;;;;;;;;;33.92;33.06;96311.13;4963055;28;20429;-47
2023/06/06 09:46:35;;;;;;;;;;;;;;;35.32;31.45;96309.16;4960872;28;19982;-45
2023/06/06 09:49:03;;;;;;;;;;;;;;;35.86;30.95;96313.69;4962554;28;19976;-51
2023/06/06 09:51:31;;;;;;;;;;;;;;;35.21;30.88;96318.72;4964758;28;19973;-49
2023/06/06 09:54:01;;;;;;;;;;;;;;;36.53;29.71;96310.16;4958638;28;19969;-49
2023/06/06 09:56:31;;;;;;;;;;;;;;;37.48;28.59;96312.47;4965699;28;20036;-51
2023/06/06 09:59:01;;;;;;;;;;;;;;;34.76;31.12;96316.56;4958587;28;19965;-46
2023/06/06 10:01:32;;;;;;;;;;;;;;;36.29;29.61;96306.91;4967376;28;19961;-47
2023/06/06 10:04:01;;;;;;;;;;;;;;;37.81;28.66;96303.75;4961652;28;19957;-46
2023/06/06 10:06:33;;;;;;;;;;;;;;;36.98;29.15;96314.75;4962074;28;19972;-46
2023/06/06 10:09:02;;;;;;;;;;;;;;;36.71;29.76;96310.22;4965587;28;19949;-45
2023/06/06 10:11:31;;;;;;;;;;;;;;;35.86;29.55;96313.69;4964568;28;19969;-46
2023/06/06 10:13:59;;;;;;;;;;;;;;;36.58;29.53;96312.78;4962222;28;20584;-44
2023/06/06 10:16:28;;;;;;;;;;;;;;;37.15;28.81;96309.28;4961120;28;19953;-46
2023/06/06 10:18:58;;;;;;;;;;;;;;;36.29;30.11;96315.16;4968220;28;20369;-45
2023/06/06 10:21:26;;;;;;;;;;;;;;;36.65;29.38;96309.56;4962225;28;19962;-47
2023/06/06 10:23:54;;;;;;;;;;;;;;;35.98;30.10;96304.91;4959357;28;20431;-47
2023/06/06 10:26:24;;;;;;;;;;;;;;;36.17;29.35;96315.75;4958466;28;19962;-44
2023/06/06 10:28:57;;;;;;;;;;;;;;;37.70;28.11;96311.50;4959306;28;19964;-48
2023/06/06 10:31:29;;;;;;;;;;;;;;;36.68;29.30;96310.88;4959358;28;19969;-48
2023/06/06 10:33:58;;;;;;;;;;;;;;;38.55;27.04;96299.97;4960621;28;20410;-45
2023/06/06 10:36:26;;;;;;;;;;;;;;;37.06;28.94;96305.69;4957056;28;20402;-44
2023/06/06 10:39:09;;;;;;;;;;;;;;;37.70;27.94;96313.47;4965486;28;19961;-47
2023/06/06 10:41:41;;;;;;;;;;;;;;;37.40;27.42;96313.22;4957496;28;19955;-45
2023/06/06 10:44:11;;;;;;;;;;;;;;;38.71;26.46;96308.47;4961032;28;19961;-49
2023/06/06 10:46:39;;;;;;;;;;;;;;;37.96;27.92;96308.00;4956150;28;19965;-44
2023/06/06 10:49:09;;;;;;;;;;;;;;;38.40;26.41;96317.00;4956217;28;19988;-42
2023/06/06 10:51:38;;;;;;;;;;;;;;;37.45;27.48;96317.81;4954939;28;19961;-46
2023/06/06 10:54:15;;;;;;;;;;;;;;;37.60;27.58;96311.03;4962982;28;19961;-51
2023/06/06 10:56:44;;;;;;;;;;;;;;;37.00;28.44;96313.31;4962778;28;19984;-46
2023/06/06 10:59:13;;;;;;;;;;;;;;;38.19;26.95;96298.38;4967535;28;19980;-50
2023/06/06 11:01:42;;;;;;;;;;;;;;;40.13;25.58;96295.97;4954857;28;19969;-46
2023/06/06 11:04:19;;;;;;;;;;;;;;;39.98;25.41;96291.84;4964446;28;19962;-47
2023/06/06 11:06:49;;;;;;;;;;;;;;;38.86;26.16;96296.16;4960390;28;19965;-45
2023/06/06 11:09:18;;;;;;;;;;;;;;;39.83;25.17;96301.56;4963432;28;19964;-47
2023/06/06 11:11:46;;;;;;;;;;;;;;;39.64;25.03;96302.03;4959574;28;19970;-45
2023/06/06 11:14:18;;;;;;;;;;;;;;;40.68;24.54;96293.97;4966893;28;19962;-45
2023/06/06 11:16:58;;;;;;;;;;;;;;;39.05;26.27;96292.97;4968960;28;19965;-44
2023/06/06 11:19:38;;;;;;;;;;;;;;;39.24;26.46;96296.09;4958531;28;19961;-41
2023/06/06 11:22:06;;;;;;;;;;;;;;;38.92;26.00;96292.88;4960079;28;19969;-45
2023/06/06 11:24:35;;;;;;;;;;;;;;;38.39;27.07;96288.66;4961810;28;20427;-44
2023/06/06 11:27:05;;;;;;;;;;;;;;;38.72;26.35;96279.00;4966537;28;19966;-46
2023/06/06 11:29:35;;;;;;;;;;;;;;;38.66;26.51;96281.91;4961467;28;19961;-46
2023/06/06 11:32:04;;;;;;;;;;;;;;;38.16;26.36;96282.50;4962366;28;19972;-51
2023/06/06 11:34:33;;;;;;;;;;;;;;;39.13;26.32;96284.66;4965716;28;19969;-44
2023/06/06 11:37:01;;;;;;;;;;;;;;;38.28;26.94;96279.09;4965182;28;19964;-43
2023/06/06 11:39:29;;;;;;;;;;;;;;;39.10;26.93;96282.56;4966107;28;19968;-44
2023/06/06 11:41:57;;;;;;;;;;;;;;;37.46;27.34;96283.66;4962068;28;19965;-43
2023/06/06 11:44:33;;;;;;;;;;;;;;;37.76;26.73;96282.69;4958570;28;20402;-43
2023/06/06 11:47:03;;;;;;;;;;;;;;;37.34;26.80;96288.94;4956592;28;20441;-45
2023/06/06 11:49:42;;;;;;;;;;;;;;;38.19;26.18;96283.81;4961578;28;19957;-47
2023/06/06 11:52:10;;;;;;;;;;;;;;;38.17;26.45;96284.16;4959551;28;20354;-47
2023/06/06 11:54:40;;;;;;;;;;;;;;;37.16;27.49;96279.84;4957060;28;19962;-47
2023/06/06 11:57:09;;;;;;;;;;;;;;;37.49;27.36;96277.50;4963537;28;20449;-50
2023/06/06 11:59:37;;;;;;;;;;;;;;;37.16;27.62;96275.16;4963195;28;19961;-50
2023/06/06 12:02:07;;;;;;;;;;;;;;;36.97;28.06;96266.41;4960100;28;19965;-52
2023/06/06 12:04:35;;;;;;;;;;;;;;;36.29;28.81;96269.28;4955940;28;19960;-47
2023/06/06 12:07:05;;;;;;;;;;;;;;;37.82;28.02;96269.59;4959792;28;19969;-46
2023/06/06 12:09:33;;;;;;;;;;;;;;;36.34;28.72;96262.81;4957646;28;19965;-45
2023/06/06 12:12:02;;;;;;;;;;;;;;;38.06;27.38;96257.25;4965633;28;19957;-45
2023/06/06 12:14:31;;;;;;;;;;;;;;;39.05;25.74;96257.09;4958154;28;19976;-45
2023/06/06 12:17:02;;;;;;;;;;;;;;;39.39;25.50;96256.91;4962089;28;19950;-50
2023/06/06 12:19:32;;;;;;;;;;;;;;;38.64;26.44;96253.06;4967973;28;19969;-51
2023/06/06 12:22:00;;;;;;;;;;;;;;;38.72;25.93;96254.19;4969621;28;19965;-47
2023/06/06 12:24:29;;;;;;;;;;;;;;;39.75;24.43;96249.19;4968867;28;19972;-50
2023/06/06 12:26:59;;;;;;;;;;;;;;;38.84;25.57;96257.88;4961402;28;19970;-50
2023/06/06 12:29:30;;;;;;;;;;;;;;;39.18;25.21;96251.34;4955034;28;19962;-46
2023/06/06 12:32:14;;;;;;;;;;;;;;;38.90;25.70;96256.53;4961743;28;19961;-48
2023/06/06 12:34:45;;;;;;;;;;;;;;;37.24;27.82;96255.13;4971247;28;19953;-44
2023/06/06 12:37:13;;;;;;;;;;;;;;;37.57;27.82;96245.63;4963846;28;20004;-49
2023/06/06 12:39:41;;;;;;;;;;;;;;;38.47;27.22;96251.19;4963631;28;19957;-52
2023/06/06 12:42:12;;;;;;;;;;;;;;;37.85;27.07;96254.34;4964203;28;19961;-51
2023/06/06 12:44:41;;;;;;;;;;;;;;;39.36;25.28;96243.78;4960406;28;19957;-45
2023/06/06 12:47:09;;;;;;;;;;;;;;;39.61;25.10;96241.97;4967323;28;19957;-49
2023/06/06 12:49:40;;;;;;;;;;;;;;;39.86;25.37;96240.16;4978921;28;20398;-45
2023/06/06 12:52:09;;;;;;;;;;;;;;;39.01;27.35;96237.66;4970128;28;20673;-44
2023/06/06 12:54:41;;;;;;;;;;;;;;;40.10;24.22;96239.44;4959961;28;19965;-46
2023/06/06 12:57:10;;;;;;;;;;;;;;;40.44;23.48;96234.69;4966450;28;19963;-46